Time;durP1;ratioP1;P1;durP2;ratioP2;P2;SDS_P1;SDS_P2;PMS_P1;PMS_P2;Temp;Humidity;BMP_temperature;BMP_pressure;BME280_temperature;BME280_humidity;BME280_pressure;Samples;Min_cycle;Max_cycle;Signal;HPM_P1;HPM_P2
2023/12/25 00:00:04;;;;;;;0.40;0.10;;;;;;;10.20;100.00;98621.02;105580;1255;81681;-59
2023/12/25 00:02:33;;;;;;;0.30;0.10;;;;;;;10.23;100.00;98621.69;105585;1254;72490;-60
2023/12/25 00:05:01;;;;;;;0.30;0.10;;;;;;;10.26;100.00;98628.45;105537;1254;69116;-59
2023/12/25 00:07:29;;;;;;;1.80;0.20;;;;;;;10.33;100.00;98625.60;105517;1256;69216;-59
2023/12/25 00:09:58;;;;;;;0.60;0.20;;;;;;;10.37;100.00;98616.60;105547;1253;72682;-59
2023/12/25 00:12:26;;;;;;;0.70;0.20;;;;;;;10.41;100.00;98622.45;105582;1256;81715;-59
2023/12/25 00:14:55;;;;;;;0.20;0.10;;;;;;;10.50;100.00;98621.05;105638;1256;71824;-59
2023/12/25 00:17:23;;;;;;;0.40;0.10;;;;;;;10.58;100.00;98621.05;105620;1257;69118;-59
2023/12/25 00:19:52;;;;;;;0.80;0.20;;;;;;;10.70;100.00;98625.83;105577;1256;69411;-59
2023/12/25 00:22:20;;;;;;;0.60;0.10;;;;;;;10.83;100.00;98624.76;105512;1253;74778;-59
2023/12/25 00:24:48;;;;;;;0.40;0.00;;;;;;;10.93;100.00;98616.41;105554;1254;82334;-59
2023/12/25 00:27:16;;;;;;;1.00;0.10;;;;;;;11.03;100.00;98625.38;105554;1255;72065;-59
2023/12/25 00:29:44;;;;;;;0.30;0.10;;;;;;;11.13;100.00;98612.30;105559;1253;69089;-59
2023/12/25 00:32:13;;;;;;;0.20;0.20;;;;;;;11.20;100.00;98621.29;105633;1254;69176;-59
2023/12/25 00:34:42;;;;;;;0.10;0.00;;;;;;;11.21;100.00;98613.71;105571;1253;74060;-60
2023/12/25 00:37:11;;;;;;;0.50;0.20;;;;;;;11.21;100.00;98617.72;105382;1257;81757;-59
2023/12/25 00:39:39;;;;;;;0.50;0.10;;;;;;;11.25;100.00;98630.40;105558;1256;71490;-59
2023/12/25 00:42:07;;;;;;;0.80;0.10;;;;;;;11.33;100.00;98619.98;105421;1257;69149;-59
2023/12/25 00:44:35;;;;;;;0.20;0.10;;;;;;;11.37;100.00;98612.75;105430;1257;69212;-59
2023/12/25 00:47:03;;;;;;;0.90;0.20;;;;;;;11.38;100.00;98610.40;105610;1253;74123;-59
2023/12/25 00:49:32;;;;;;;0.30;0.10;;;;;;;11.39;100.00;98604.06;105541;1254;81309;-59
2023/12/25 00:52:00;;;;;;;1.20;0.10;;;;;;;11.41;100.00;98613.36;105548;1256;71721;-59
2023/12/25 00:54:31;;;;;;;0.40;0.20;;;;;;;11.42;100.00;98620.09;105557;1253;69112;-59
2023/12/25 00:56:59;;;;;;;2.20;0.20;;;;;;;11.41;100.00;98634.70;105563;1252;69187;-59
2023/12/25 00:59:28;;;;;;;0.90;0.10;;;;;;;11.43;100.00;98627.74;105541;1258;73024;-59
2023/12/25 01:01:56;;;;;;;0.40;0.10;;;;;;;11.48;100.00;98628.77;105547;1254;82940;-59
2023/12/25 01:04:24;;;;;;;0.40;0.10;;;;;;;11.51;100.00;98628.27;105415;1258;71982;-59
2023/12/25 01:06:53;;;;;;;0.20;0.10;;;;;;;11.55;100.00;98639.48;105595;1257;69148;-59
2023/12/25 01:09:21;;;;;;;1.40;0.20;;;;;;;11.57;100.00;98640.55;105647;1256;69170;-59
2023/12/25 01:11:49;;;;;;;0.30;0.10;;;;;;;11.56;100.00;98635.55;105579;1253;72401;-59
2023/12/25 01:14:17;;;;;;;0.90;0.10;;;;;;;11.57;100.00;98650.34;105437;1254;82782;-59
2023/12/25 01:16:46;;;;;;;0.30;0.10;;;;;;;11.60;100.00;98655.73;105547;1252;72849;-59
2023/12/25 01:19:14;;;;;;;0.10;0.10;;;;;;;11.64;100.00;98653.92;105331;1257;69120;-59
2023/12/25 01:21:43;;;;;;;0.20;0.10;;;;;;;11.65;100.00;98655.95;105623;1256;69151;-59
2023/12/25 01:24:12;;;;;;;0.50;0.00;;;;;;;11.66;100.00;98659.42;105628;1256;73810;-59
2023/12/25 01:26:40;;;;;;;0.40;0.10;;;;;;;11.65;100.00;98667.18;105453;1258;82946;-59
2023/12/25 01:29:09;;;;;;;1.50;0.10;;;;;;;11.67;100.00;98672.09;105589;1256;73051;-59
2023/12/25 01:31:40;;;;;;;0.40;0.10;;;;;;;11.66;100.00;98679.36;105573;1256;69196;-59
2023/12/25 01:34:08;;;;;;;;;;;;;;;11.65;100.00;98684.30;105621;1255;69213;-59
2023/12/25 01:36:38;;;;;;;1.20;0.10;;;;;;;11.61;100.00;98705.23;105616;1256;73378;-59
2023/12/25 01:39:07;;;;;;;1.40;0.10;;;;;;;11.57;100.00;98696.59;105580;1253;81520;-59
2023/12/25 01:41:35;;;;;;;0.40;0.10;;;;;;;11.52;100.00;98707.90;105630;1255;72888;-59
2023/12/25 01:44:03;;;;;;;0.30;0.10;;;;;;;11.46;100.00;98713.05;105464;1253;69227;-59
2023/12/25 01:46:41;;;;;;;1.80;0.20;;;;;;;11.37;100.00;98721.17;105559;1256;69267;-59
2023/12/25 01:49:09;;;;;;;0.40;0.30;;;;;;;11.28;100.00;98736.79;105576;1254;73208;-60
2023/12/25 01:51:38;;;;;;;0.70;0.30;;;;;;;11.17;100.00;98763.27;105434;1253;82430;-60
2023/12/25 01:54:07;;;;;;;2.20;0.40;;;;;;;11.03;100.00;98790.94;105583;1255;71750;-61
2023/12/25 01:56:36;;;;;;;3.90;0.60;;;;;;;10.76;100.00;98796.79;105568;1253;69251;-61
2023/12/25 01:59:04;;;;;;;1.60;0.50;;;;;;;10.43;100.00;98793.82;105449;1258;69187;-61
2023/12/25 02:01:32;;;;;;;0.70;0.40;;;;;;;10.13;100.00;98800.84;105423;1253;73154;-61
2023/12/25 02:04:00;;;;;;;1.50;0.30;;;;;;;9.89;100.00;98805.29;105535;1253;81588;-60
2023/12/25 02:06:29;;;;;;;1.30;0.40;;;;;;;9.69;100.00;98803.34;105610;1253;72061;-61
2023/12/25 02:08:59;;;;;;;0.90;0.30;;;;;;;9.50;100.00;98805.10;105560;1252;69116;-61
2023/12/25 02:11:28;;;;;;;1.00;0.20;;;;;;;9.33;100.00;98812.36;105342;1253;69152;-61
2023/12/25 02:14:01;;;;;;;1.40;0.30;;;;;;;9.19;100.00;98815.07;105566;1253;73801;-61
2023/12/25 02:16:29;;;;;;;0.70;0.20;;;;;;;9.07;100.00;98822.20;105575;1256;81629;-61
2023/12/25 02:18:58;;;;;;;0.30;0.20;;;;;;;8.99;100.00;98830.71;105481;1257;72602;-61
2023/12/25 02:21:27;;;;;;;1.00;0.20;;;;;;;8.92;100.00;98823.41;105598;1255;69113;-61
2023/12/25 02:23:58;;;;;;;1.90;0.40;;;;;;;8.86;100.00;98817.80;105588;1253;69183;-61
2023/12/25 02:26:28;;;;;;;2.20;0.20;;;;;;;8.81;100.00;98813.20;105343;1253;74112;-61
2023/12/25 02:28:56;;;;;;;1.00;0.30;;;;;;;8.77;100.00;98804.05;105680;1256;82539;-60
2023/12/25 02:31:24;;;;;;;1.40;0.30;;;;;;;8.72;100.00;98803.76;105513;1253;71929;-60
2023/12/25 02:33:52;;;;;;;1.70;0.20;;;;;;;8.68;100.00;98803.12;105614;1256;69112;-60
2023/12/25 02:36:21;;;;;;;1.30;0.20;;;;;;;8.63;100.00;98803.88;105427;1257;69181;-60
2023/12/25 02:38:49;;;;;;;0.30;0.10;;;;;;;8.59;100.00;98806.73;105543;1253;73392;-60
2023/12/25 02:41:17;;;;;;;1.50;0.20;;;;;;;8.55;100.00;98801.58;105547;1256;82547;-60
2023/12/25 02:43:46;;;;;;;0.50;0.20;;;;;;;8.50;100.00;98818.73;105405;1257;73014;-60
2023/12/25 02:46:14;;;;;;;0.50;0.20;;;;;;;8.44;100.00;98827.20;105561;1253;69417;-60
2023/12/25 02:48:42;;;;;;;2.30;0.20;;;;;;;8.40;100.00;98823.60;105423;1257;69267;-60
2023/12/25 02:51:12;;;;;;;1.10;0.10;;;;;;;8.37;100.00;98821.80;105553;1252;74595;-60
2023/12/25 02:53:40;;;;;;;0.50;0.20;;;;;;;8.35;100.00;98824.88;105592;1255;83465;-60
2023/12/25 02:56:08;;;;;;;0.40;0.20;;;;;;;8.35;100.00;98822.83;105472;1257;71730;-60
2023/12/25 02:58:37;;;;;;;1.00;0.30;;;;;;;8.36;100.00;98825.20;105539;1255;69228;-60
2023/12/25 03:01:05;;;;;;;0.50;0.20;;;;;;;8.39;100.00;98827.33;105581;1253;69283;-60
2023/12/25 03:03:33;;;;;;;2.00;0.40;;;;;;;8.41;100.00;98815.55;105553;1253;72977;-60
2023/12/25 03:06:01;;;;;;;1.30;0.60;;;;;;;8.43;100.00;98817.02;105429;1257;81500;-60
2023/12/25 03:08:31;;;;;;;2.00;0.60;;;;;;;8.45;100.00;98829.39;105579;1259;71998;-60
2023/12/25 03:11:00;;;;;;;0.70;0.40;;;;;;;8.51;100.00;98829.30;105591;1255;69119;-60
2023/12/25 03:13:28;;;;;;;0.90;0.40;;;;;;;8.55;100.00;98824.01;105612;1256;69191;-60
2023/12/25 03:15:56;;;;;;;1.40;0.70;;;;;;;8.60;100.00;98824.44;105549;1253;72659;-60
2023/12/25 03:18:24;;;;;;;2.70;0.70;;;;;;;8.66;100.00;98829.35;105609;1253;80263;-60
2023/12/25 03:20:54;;;;;;;2.00;0.70;;;;;;;8.71;100.00;98831.15;105548;1255;72654;-60
2023/12/25 03:23:22;;;;;;;2.10;0.70;;;;;;;8.75;100.00;98826.24;105493;1253;69184;-60
2023/12/25 03:25:51;;;;;;;1.10;0.60;;;;;;;8.79;100.00;98835.77;105615;1254;69104;-60
2023/12/25 03:28:19;;;;;;;0.40;0.40;;;;;;;8.83;100.00;98839.90;105551;1256;71700;-60
2023/12/25 03:30:47;;;;;;;1.20;0.60;;;;;;;8.89;100.00;98836.77;105625;1255;82251;-60
2023/12/25 03:33:16;;;;;;;1.80;0.50;;;;;;;8.93;100.00;98832.55;105416;1253;72179;-60
2023/12/25 03:35:44;;;;;;;1.00;0.40;;;;;;;8.97;100.00;98827.83;105590;1255;69109;-60
2023/12/25 03:38:13;;;;;;;1.10;0.50;;;;;;;8.99;100.00;98827.41;105540;1255;69278;-60
2023/12/25 03:40:41;;;;;;;0.70;0.50;;;;;;;9.01;100.00;98834.57;105576;1253;72926;-60
2023/12/25 03:43:09;;;;;;;1.40;0.60;;;;;;;9.04;100.00;98831.98;105577;1255;82651;-60
2023/12/25 03:45:37;;;;;;;1.50;0.60;;;;;;;9.05;100.00;98837.34;105507;1253;72593;-60
2023/12/25 03:48:06;;;;;;;0.70;0.40;;;;;;;9.08;100.00;98840.46;105536;1253;69169;-60
2023/12/25 03:50:34;;;;;;;1.80;0.50;;;;;;;9.12;100.00;98840.24;105548;1256;69168;-60
2023/12/25 03:53:02;;;;;;;1.30;0.40;;;;;;;9.16;100.00;98848.55;105547;1253;74038;-60
2023/12/25 03:55:31;;;;;;;0.60;0.40;;;;;;;9.20;100.00;98849.05;105541;1253;81389;-60
2023/12/25 03:58:00;;;;;;;3.00;0.40;;;;;;;9.20;100.00;98843.13;105624;1256;72103;-60
2023/12/25 04:00:28;;;;;;;0.70;0.30;;;;;;;9.20;100.00;98837.70;105412;1254;69300;-60
2023/12/25 04:02:57;;;;;;;0.30;0.30;;;;;;;9.21;100.00;98845.31;105553;1257;69234;-60
2023/12/25 04:05:25;;;;;;;1.00;0.40;;;;;;;9.21;100.00;98850.20;105498;1253;73378;-60
2023/12/25 04:07:54;;;;;;;1.30;0.30;;;;;;;9.22;100.00;98837.77;105618;1253;83712;-60
2023/12/25 04:10:22;;;;;;;2.80;0.40;;;;;;;9.22;100.00;98837.04;105420;1257;72919;-60
2023/12/25 04:12:51;;;;;;;0.80;0.30;;;;;;;9.24;100.00;98838.88;105529;1255;69112;-60
2023/12/25 04:15:19;;;;;;;1.10;0.50;;;;;;;9.25;100.00;98845.08;105535;1253;69208;-60
2023/12/25 04:17:47;;;;;;;0.80;0.30;;;;;;;9.27;100.00;98861.15;105506;1257;72860;-60
2023/12/25 04:20:16;;;;;;;0.80;0.40;;;;;;;9.30;100.00;98869.55;105429;1257;81865;-60
2023/12/25 04:22:44;;;;;;;1.30;0.40;;;;;;;9.29;100.00;98864.35;105484;1253;71769;-60
2023/12/25 04:25:12;;;;;;;1.60;0.40;;;;;;;9.26;100.00;98862.77;105551;1255;69249;-60
2023/12/25 04:27:45;;;;;;;1.40;0.40;;;;;;;9.22;100.00;98869.13;105535;1253;69100;-60
2023/12/25 04:30:13;;;;;;;1.80;0.40;;;;;;;9.19;100.00;98868.27;105587;1255;73137;-60
2023/12/25 04:32:42;;;;;;;0.50;0.30;;;;;;;9.15;100.00;98875.42;105598;1256;82953;-60
2023/12/25 04:35:11;;;;;;;1.50;0.30;;;;;;;9.12;100.00;98879.59;105594;1252;72054;-60
2023/12/25 04:37:39;;;;;;;1.10;0.60;;;;;;;9.09;100.00;98879.75;105540;1253;69218;-60
2023/12/25 04:40:08;;;;;;;2.00;0.80;;;;;;;9.06;100.00;98886.38;105626;1253;69068;-60
2023/12/25 04:42:37;;;;;;;1.10;0.50;;;;;;;9.04;100.00;98883.89;105498;1254;72919;-60
2023/12/25 04:45:07;;;;;;;1.90;0.80;;;;;;;9.02;100.00;98889.21;105454;1257;82660;-61
2023/12/25 04:47:35;;;;;;;0.70;0.40;;;;;;;9.01;100.00;98882.85;105618;1255;71995;-61
2023/12/25 04:50:05;;;;;;;1.90;0.50;;;;;;;8.99;100.00;98882.09;105632;1253;69128;-61
2023/12/25 04:52:35;;;;;;;0.90;0.30;;;;;;;8.97;100.00;98883.58;105485;1254;69067;-61
2023/12/25 04:55:04;;;;;;;1.00;0.50;;;;;;;8.97;100.00;98890.41;105511;1257;71593;-61
2023/12/25 04:57:34;;;;;;;;;;;;;;;8.97;100.00;98885.48;105609;1253;81579;-61
2023/12/25 05:00:03;;;;;;;1.10;0.40;;;;;;;8.99;100.00;98882.11;105416;1253;72985;-61
2023/12/25 05:02:31;;;;;;;0.90;0.40;;;;;;;9.01;100.00;98880.23;105571;1255;69109;-61
2023/12/25 05:05:00;;;;;;;2.00;0.40;;;;;;;9.01;100.00;98876.04;105574;1253;69720;-60
2023/12/25 05:07:28;;;;;;;1.00;0.40;;;;;;;9.02;100.00;98878.11;105587;1253;73283;-61
2023/12/25 05:09:56;;;;;;;0.30;0.30;;;;;;;9.03;100.00;98873.68;105611;1255;81435;-61
2023/12/25 05:12:24;;;;;;;0.70;0.20;;;;;;;9.05;100.00;98870.76;105539;1254;70931;-61
2023/12/25 05:14:53;;;;;;;1.60;0.40;;;;;;;9.08;100.00;98861.52;105634;1254;69188;-61
2023/12/25 05:17:21;;;;;;;0.50;0.10;;;;;;;9.07;100.00;98862.45;105610;1256;69176;-61
2023/12/25 05:19:50;;;;;;;0.40;0.20;;;;;;;9.05;100.00;98862.59;105620;1253;73043;-61
2023/12/25 05:22:18;;;;;;;0.60;0.40;;;;;;;9.03;100.00;98869.84;105480;1253;82765;-61
2023/12/25 05:24:46;;;;;;;0.50;0.20;;;;;;;9.01;100.00;98867.00;105524;1253;71172;-61
2023/12/25 05:27:14;;;;;;;0.10;0.00;;;;;;;8.98;100.00;98867.83;105593;1253;69161;-61
2023/12/25 05:29:42;;;;;;;0.40;0.30;;;;;;;8.96;100.00;98874.38;105593;1256;69208;-61
2023/12/25 05:32:11;;;;;;;0.50;0.30;;;;;;;8.95;100.00;98876.87;105613;1256;73102;-60
2023/12/25 05:34:39;;;;;;;0.50;0.20;;;;;;;8.97;100.00;98866.31;105630;1256;81944;-61
2023/12/25 05:37:07;;;;;;;0.70;0.20;;;;;;;8.99;100.00;98862.92;105510;1253;72440;-61
2023/12/25 05:39:35;;;;;;;3.60;0.30;;;;;;;8.98;100.00;98858.95;105497;1252;69030;-61
2023/12/25 05:42:03;;;;;;;1.00;0.20;;;;;;;8.95;100.00;98866.95;105535;1253;69169;-60
2023/12/25 05:44:31;;;;;;;1.30;0.40;;;;;;;8.94;100.00;98863.86;105542;1253;72922;-60
2023/12/25 05:47:00;;;;;;;1.90;0.30;;;;;;;8.93;100.00;98868.77;105539;1252;81627;-60
2023/12/25 05:49:29;;;;;;;1.60;0.20;;;;;;;8.93;100.00;98858.49;105553;1253;71801;-60
2023/12/25 05:51:57;;;;;;;0.40;0.20;;;;;;;8.93;100.00;98849.61;105515;1255;69106;-60
2023/12/25 05:54:25;;;;;;;1.50;0.20;;;;;;;8.93;100.00;98859.04;105503;1253;69135;-60
2023/12/25 05:56:53;;;;;;;1.50;0.20;;;;;;;8.95;100.00;98851.44;105554;1253;72099;-60
2023/12/25 05:59:21;;;;;;;1.10;0.30;;;;;;;8.98;100.00;98849.92;105605;1255;81930;-60
2023/12/25 06:01:50;;;;;;;0.50;0.40;;;;;;;8.99;100.00;98851.73;105564;1255;73007;-60
2023/12/25 06:04:18;;;;;;;1.40;0.30;;;;;;;9.02;100.00;98850.06;105599;1253;69145;-60
2023/12/25 06:06:47;;;;;;;0.70;0.20;;;;;;;9.05;100.00;98848.33;105510;1255;69176;-60
2023/12/25 06:09:15;;;;;;;2.30;0.40;;;;;;;9.06;100.00;98857.30;105612;1253;72793;-60
2023/12/25 06:11:43;;;;;;;0.90;0.20;;;;;;;9.10;100.00;98860.53;105536;1256;82720;-60
2023/12/25 06:14:11;;;;;;;1.00;0.30;;;;;;;9.13;100.00;98862.66;105520;1253;70325;-60
2023/12/25 06:16:39;;;;;;;0.30;0.20;;;;;;;9.16;100.00;98862.98;105540;1253;69119;-59
2023/12/25 06:19:08;;;;;;;1.70;0.30;;;;;;;9.20;100.00;98862.13;105550;1254;69215;-60
2023/12/25 06:21:36;;;;;;;0.60;0.20;;;;;;;9.21;100.00;98871.64;105582;1254;72973;-60
2023/12/25 06:24:05;;;;;;;0.90;0.20;;;;;;;9.21;100.00;98866.58;105544;1255;81404;-60
2023/12/25 06:26:33;;;;;;;0.90;0.20;;;;;;;9.24;100.00;98874.79;105524;1256;72216;-60
2023/12/25 06:29:02;;;;;;;0.70;0.20;;;;;;;9.27;100.00;98868.67;105610;1255;69190;-60
2023/12/25 06:31:30;;;;;;;0.20;0.20;;;;;;;9.29;100.00;98882.30;105609;1255;69171;-59
2023/12/25 06:33:58;;;;;;;0.90;0.30;;;;;;;9.31;100.00;98887.25;105526;1255;71924;-60
2023/12/25 06:36:27;;;;;;;0.30;0.30;;;;;;;9.33;100.00;98880.70;105570;1255;81838;-60
2023/12/25 06:38:55;;;;;;;0.30;0.20;;;;;;;9.33;100.00;98899.17;105494;1253;73112;-59
2023/12/25 06:41:23;;;;;;;1.20;0.40;;;;;;;9.33;100.00;98897.75;105437;1254;69151;-59
2023/12/25 06:43:51;;;;;;;0.40;0.30;;;;;;;9.35;100.00;98895.78;105518;1253;69144;-59
2023/12/25 06:46:20;;;;;;;0.20;0.20;;;;;;;9.35;100.00;98905.86;105552;1253;71473;-59
2023/12/25 06:48:48;;;;;;;1.60;0.80;;;;;;;9.34;100.00;98912.70;105544;1256;80216;-59
2023/12/25 06:51:16;;;;;;;1.90;0.20;;;;;;;9.35;100.00;98917.91;105604;1253;71401;-59
2023/12/25 06:53:45;;;;;;;0.70;0.20;;;;;;;9.34;100.00;98920.55;105575;1256;69107;-60
2023/12/25 06:56:13;;;;;;;0.40;0.20;;;;;;;9.34;100.00;98919.50;105530;1253;69110;-59
2023/12/25 06:58:41;;;;;;;0.70;0.40;;;;;;;9.36;100.00;98936.98;105585;1253;72067;-59
2023/12/25 07:01:09;;;;;;;1.50;0.20;;;;;;;9.40;100.00;98935.63;105531;1254;80588;-59
2023/12/25 07:03:38;;;;;;;0.50;0.10;;;;;;;9.38;100.00;98945.59;105565;1252;72974;-59
2023/12/25 07:06:09;;;;;;;0.40;0.20;;;;;;;9.39;100.00;98941.02;105507;1255;69197;-59
2023/12/25 07:08:37;;;;;;;0.60;0.40;;;;;;;9.39;100.00;98944.15;105552;1256;69193;-59
2023/12/25 07:11:05;;;;;;;0.10;0.10;;;;;;;9.41;100.00;98942.52;105554;1255;72926;-59
2023/12/25 07:13:36;;;;;;;0.60;0.30;;;;;;;9.39;100.00;98940.14;105540;1253;83253;-59
2023/12/25 07:16:05;;;;;;;0.10;0.10;;;;;;;9.37;100.00;98941.34;105556;1253;70564;-59
2023/12/25 07:18:33;;;;;;;0.40;0.20;;;;;;;9.32;100.00;98943.16;105581;1255;69132;-59
2023/12/25 07:21:01;;;;;;;0.90;0.10;;;;;;;9.30;100.00;98946.40;105575;1253;69168;-59
2023/12/25 07:23:30;;;;;;;0.60;0.10;;;;;;;9.27;100.00;98959.45;105628;1253;74617;-59
2023/12/25 07:25:58;;;;;;;1.50;0.10;;;;;;;9.26;100.00;98957.61;105550;1255;82597;-59
2023/12/25 07:28:26;;;;;;;0.70;0.20;;;;;;;9.25;100.00;98956.94;105523;1254;71705;-59
2023/12/25 07:30:55;;;;;;;0.10;0.10;;;;;;;9.24;100.00;98957.55;105525;1253;69116;-59
2023/12/25 07:33:23;;;;;;;0.10;0.10;;;;;;;9.23;100.00;98948.73;105499;1255;69210;-59
2023/12/25 07:35:52;;;;;;;1.30;0.20;;;;;;;9.22;100.00;98947.94;105503;1253;73608;-59
2023/12/25 07:38:20;;;;;;;0.30;0.10;;;;;;;9.22;100.00;98956.10;105564;1255;82711;-59
2023/12/25 07:40:49;;;;;;;0.40;0.10;;;;;;;9.23;100.00;98962.33;105490;1252;71964;-59
2023/12/25 07:43:17;;;;;;;0.90;0.40;;;;;;;9.24;100.00;98967.70;105596;1253;69202;-59
2023/12/25 07:45:45;;;;;;;1.40;0.20;;;;;;;9.25;100.00;98976.84;105539;1256;69139;-59
2023/12/25 07:48:13;;;;;;;1.20;0.10;;;;;;;9.27;100.00;98961.40;105512;1255;72027;-59
2023/12/25 07:50:45;;;;;;;0.20;0.10;;;;;;;9.29;100.00;98977.18;105516;1255;82882;-59
2023/12/25 07:53:13;;;;;;;0.20;0.20;;;;;;;9.31;100.00;98978.95;105519;1255;72455;-60
2023/12/25 07:55:41;;;;;;;0.50;0.10;;;;;;;9.33;100.00;98980.05;105500;1255;69122;-59
2023/12/25 07:58:10;;;;;;;0.50;0.10;;;;;;;9.35;100.00;98997.70;105485;1253;69126;-59
2023/12/25 08:00:38;;;;;;;0.30;0.10;;;;;;;9.37;100.00;98995.16;105596;1253;72797;-59
2023/12/25 08:03:06;;;;;;;0.50;0.30;;;;;;;9.40;100.00;98994.54;105525;1255;81960;-59
2023/12/25 08:05:35;;;;;;;0.80;0.30;;;;;;;9.42;100.00;99007.14;105563;1254;72923;-60
2023/12/25 08:08:07;;;;;;;1.60;0.30;;;;;;;9.44;100.00;99000.92;105453;1253;69193;-60
2023/12/25 08:10:35;;;;;;;0.40;0.10;;;;;;;9.46;100.00;99009.54;105540;1256;69158;-60
2023/12/25 08:13:03;;;;;;;1.10;0.20;;;;;;;9.48;100.00;99005.92;105518;1253;73641;-59
2023/12/25 08:15:31;;;;;;;0.90;0.10;;;;;;;9.50;100.00;99006.68;105492;1257;81640;-59
2023/12/25 08:17:59;;;;;;;1.80;0.20;;;;;;;9.53;100.00;99008.98;105528;1253;70352;-59
2023/12/25 08:20:28;;;;;;;1.60;0.30;;;;;;;9.56;100.00;99014.70;105546;1255;69158;-59
2023/12/25 08:22:56;;;;;;;1.10;0.40;;;;;;;9.58;100.00;99025.08;105488;1253;69200;-59
2023/12/25 08:25:25;;;;;;;0.90;0.50;;;;;;;9.60;100.00;99014.50;105486;1253;72973;-59
2023/12/25 08:27:53;;;;;;;0.90;0.30;;;;;;;9.65;100.00;99016.17;105566;1253;80933;-60
2023/12/25 08:30:22;;;;;;;0.30;0.20;;;;;;;9.74;100.00;99021.90;105561;1253;71538;-59
2023/12/25 08:32:50;;;;;;;2.20;0.60;;;;;;;9.86;100.00;99013.42;105371;1258;69144;-60
2023/12/25 08:35:22;;;;;;;1.80;0.40;;;;;;;9.96;100.00;99007.11;105508;1252;69094;-59
2023/12/25 08:37:50;;;;;;;1.50;0.30;;;;;;;10.01;100.00;99028.59;105538;1255;73031;-59
2023/12/25 08:40:19;;;;;;;1.30;0.20;;;;;;;10.07;100.00;99030.39;105489;1255;81506;-59
2023/12/25 08:42:47;;;;;;;0.60;0.20;;;;;;;10.11;100.00;99027.91;105574;1253;72042;-59
2023/12/25 08:45:16;;;;;;;1.90;0.20;;;;;;;10.12;100.00;99028.33;105497;1253;69160;-60
2023/12/25 08:47:44;;;;;;;0.80;0.30;;;;;;;10.12;100.00;99033.95;105467;1254;69285;-59
2023/12/25 08:50:12;;;;;;;3.40;0.50;;;;;;;10.09;100.00;99042.12;105537;1253;71836;-59
2023/12/25 08:52:41;;;;;;;0.90;0.30;;;;;;;10.08;100.00;99042.88;105513;1256;81491;-59
2023/12/25 08:55:09;;;;;;;0.50;0.30;;;;;;;10.08;100.00;99053.38;105491;1253;70695;-59
2023/12/25 08:57:37;;;;;;;3.60;0.40;;;;;;;10.07;100.00;99058.62;105529;1256;69091;-59
2023/12/25 09:00:07;;;;;;;2.00;0.30;;;;;;;10.07;100.00;99073.14;105506;1256;69270;-59
2023/12/25 09:02:36;;;;;;;2.80;0.50;;;;;;;10.08;100.00;99061.21;105547;1256;72482;-59
2023/12/25 09:05:05;;;;;;;1.30;0.40;;;;;;;10.11;100.00;99066.98;105529;1255;82745;-59
2023/12/25 09:07:35;;;;;;;1.20;0.50;;;;;;;10.13;100.00;99063.20;105512;1256;73023;-59
2023/12/25 09:10:06;;;;;;;1.90;0.40;;;;;;;10.15;100.00;99070.44;105539;1256;69196;-59
2023/12/25 09:12:34;;;;;;;1.60;0.40;;;;;;;10.18;100.00;99066.43;105543;1254;69092;-59
2023/12/25 09:15:04;;;;;;;1.00;0.40;;;;;;;10.18;100.00;99066.95;105518;1253;72897;-59
2023/12/25 09:17:34;;;;;;;0.70;0.60;;;;;;;10.16;100.00;99085.69;105578;1253;81776;-59
2023/12/25 09:20:03;;;;;;;1.30;0.30;;;;;;;10.15;100.00;99092.92;105523;1253;71991;-59
2023/12/25 09:22:31;;;;;;;1.50;0.40;;;;;;;10.14;100.00;99085.67;105531;1255;69206;-60
2023/12/25 09:24:59;;;;;;;1.20;0.30;;;;;;;10.10;100.00;99086.23;105509;1256;69125;-60
2023/12/25 09:27:29;;;;;;;2.10;0.50;;;;;;;10.04;100.00;99087.44;105545;1252;73090;-60
2023/12/25 09:29:57;;;;;;;4.00;0.40;;;;;;;9.98;100.00;99100.17;105574;1252;82655;-60
2023/12/25 09:32:27;;;;;;;0.40;0.20;;;;;;;9.92;100.00;99095.27;105490;1253;72956;-59
2023/12/25 09:34:55;;;;;;;1.40;0.40;;;;;;;9.88;100.00;99094.07;105529;1255;69113;-59
2023/12/25 09:37:25;;;;;;;1.60;0.40;;;;;;;9.81;100.00;99103.36;105559;1255;69561;-59
2023/12/25 09:39:54;;;;;;;2.30;0.50;;;;;;;9.69;100.00;99114.30;105577;1256;73264;-59
2023/12/25 09:42:22;;;;;;;2.20;0.60;;;;;;;9.62;100.00;99106.98;105486;1253;81666;-60
2023/12/25 09:44:53;;;;;;;1.10;0.30;;;;;;;9.59;100.00;99100.52;105479;1252;71668;-59
2023/12/25 09:47:23;;;;;;;1.80;0.40;;;;;;;9.58;100.00;99107.20;105392;1254;69172;-59
2023/12/25 09:49:53;;;;;;;2.00;0.60;;;;;;;9.59;100.00;99116.23;105512;1255;69184;-59
2023/12/25 09:52:22;;;;;;;2.90;0.50;;;;;;;9.62;100.00;99117.30;105500;1253;74121;-59
2023/12/25 09:54:51;;;;;;;1.80;0.50;;;;;;;9.67;100.00;99120.73;105552;1253;80784;-59
2023/12/25 09:57:19;;;;;;;0.70;0.40;;;;;;;9.73;100.00;99120.23;105606;1253;71797;-59
2023/12/25 09:59:52;;;;;;;1.00;0.50;;;;;;;9.78;100.00;99134.20;105584;1254;69148;-59
2023/12/25 10:02:21;;;;;;;2.80;0.50;;;;;;;9.85;100.00;99118.49;105624;1253;69446;-60
2023/12/25 10:04:50;;;;;;;1.70;0.30;;;;;;;9.91;100.00;99118.36;105594;1253;73485;-59
2023/12/25 10:07:21;;;;;;;0.70;0.30;;;;;;;9.96;100.00;99128.70;105530;1253;81756;-59
2023/12/25 10:09:53;;;;;;;1.40;0.50;;;;;;;10.05;100.00;99114.41;105513;1255;71832;-59
2023/12/25 10:12:21;;;;;;;1.70;0.40;;;;;;;10.19;100.00;99121.30;105494;1255;69123;-59
2023/12/25 10:14:50;;;;;;;1.70;0.70;;;;;;;10.27;100.00;99123.36;105516;1255;69177;-59
2023/12/25 10:17:18;;;;;;;1.30;0.40;;;;;;;10.32;100.00;99126.08;105556;1253;74184;-58
2023/12/25 10:19:57;;;;;;;2.10;0.60;;;;;;;10.34;100.00;99141.34;105560;1256;81663;-59
2023/12/25 10:22:30;;;;;;;1.70;0.70;;;;;;;10.35;100.00;99140.77;105511;1255;72725;-59
2023/12/25 10:25:10;;;;;;;1.00;0.60;;;;;;;10.33;100.00;99138.21;105504;1255;69212;-59
2023/12/25 10:27:40;;;;;;;1.00;0.60;;;;;;;10.32;100.00;99137.61;105521;1253;69168;-59
2023/12/25 10:30:15;;;;;;;1.20;0.60;;;;;;;10.31;100.00;99147.59;105551;1255;72972;-59
2023/12/25 10:32:44;;;;;;;2.80;0.70;;;;;;;10.31;100.00;99149.86;105540;1256;81831;-59
2023/12/25 10:35:15;;;;;;;0.70;0.50;;;;;;;10.32;100.00;99157.88;105543;1256;72906;-59
2023/12/25 10:37:45;;;;;;;0.50;0.30;;;;;;;10.30;100.00;99149.06;105495;1255;69135;-59
2023/12/25 10:40:26;;;;;;;1.30;0.40;;;;;;;10.28;100.00;99141.80;105529;1256;70549;-58
2023/12/25 10:42:55;;;;;;;1.10;0.20;;;;;;;10.26;100.00;99143.44;105346;1255;226648;-59
2023/12/25 10:45:28;;;;;;;0.30;0.30;;;;;;;10.26;100.00;99143.98;105540;1254;81687;-59
2023/12/25 10:47:58;;;;;;;1.40;0.90;;;;;;;10.26;100.00;99144.84;105503;1255;71810;-58
2023/12/25 10:50:30;;;;;;;1.30;0.20;;;;;;;10.27;100.00;99140.29;105521;1255;69250;-58
2023/12/25 10:53:03;;;;;;;0.40;0.20;;;;;;;10.29;100.00;99147.02;105547;1256;69200;-59
2023/12/25 10:55:37;;;;;;;0.90;0.30;;;;;;;10.31;100.00;99146.73;105528;1252;72992;-59
2023/12/25 10:58:08;;;;;;;0.50;0.30;;;;;;;10.34;100.00;99151.27;105531;1255;81499;-59
2023/12/25 11:00:39;;;;;;;1.40;0.30;;;;;;;10.37;100.00;99143.54;105522;1253;71693;-59
2023/12/25 11:03:13;;;;;;;0.80;0.50;;;;;;;10.40;100.00;99145.85;105428;1253;69216;-59
2023/12/25 11:05:43;;;;;;;3.20;0.40;;;;;;;10.43;100.00;99149.52;105530;1253;69163;-59
2023/12/25 11:08:13;;;;;;;0.60;0.30;;;;;;;10.48;100.00;99150.46;105553;1253;72695;-59
2023/12/25 11:10:51;;;;;;;2.10;0.50;;;;;;;10.54;100.00;99151.92;105486;1255;81990;-59
2023/12/25 11:13:19;;;;;;;0.50;0.50;;;;;;;10.56;100.00;99156.52;105565;1253;70665;-59
2023/12/25 11:15:47;;;;;;;1.50;0.40;;;;;;;10.57;100.00;99158.91;105497;1253;69170;-59
2023/12/25 11:18:15;;;;;;;1.40;0.40;;;;;;;10.56;100.00;99144.78;105520;1256;69204;-59
2023/12/25 11:21:03;;;;;;;1.30;0.60;;;;;;;10.57;100.00;99142.13;105542;1253;72883;-60
2023/12/25 11:23:34;;;;;;;1.30;0.70;;;;;;;10.57;100.00;99139.13;105500;1256;82696;-59
2023/12/25 11:26:08;;;;;;;3.10;0.90;;;;;;;10.56;100.00;99110.39;105569;1254;71927;-59
2023/12/25 11:28:40;;;;;;;5.10;1.30;;;;;;;10.54;100.00;99140.52;105550;1255;69186;-59